sensor_id;sensor_type;location;lat;lon;timestamp;P1;durP1;ratioP1;P2;durP2;ratioP2
46014;SDS011;36844;51.898;-0.874;2024-03-22T00:00:37;3.65;;;1.73;;
46014;SDS011;36844;51.898;-0.874;2024-03-22T00:03:02;2.45;;;2.22;;
46014;SDS011;36844;51.898;-0.874;2024-03-22T00:05:27;4.18;;;2.40;;
46014;SDS011;36844;51.898;-0.874;2024-03-22T00:07:53;2.40;;;2.15;;
46014;SDS011;36844;51.898;-0.874;2024-03-22T00:10:18;2.63;;;2.03;;
46014;SDS011;36844;51.898;-0.874;2024-03-22T00:12:43;3.17;;;1.98;;
46014;SDS011;36844;51.898;-0.874;2024-03-22T00:15:09;2.83;;;2.10;;
46014;SDS011;36844;51.898;-0.874;2024-03-22T00:17:34;3.30;;;2.30;;
46014;SDS011;36844;51.898;-0.874;2024-03-22T00:20:00;3.03;;;2.35;;
46014;SDS011;36844;51.898;-0.874;2024-03-22T00:22:25;2.95;;;2.20;;
46014;SDS011;36844;51.898;-0.874;2024-03-22T00:24:51;2.63;;;1.88;;
46014;SDS011;36844;51.898;-0.874;2024-03-22T00:27:16;2.90;;;1.98;;
46014;SDS011;36844;51.898;-0.874;2024-03-22T00:29:41;2.42;;;1.92;;
46014;SDS011;36844;51.898;-0.874;2024-03-22T00:32:07;1.88;;;1.67;;
46014;SDS011;36844;51.898;-0.874;2024-03-22T00:34:33;2.00;;;1.80;;
46014;SDS011;36844;51.898;-0.874;2024-03-22T00:36:59;3.72;;;1.98;;
46014;SDS011;36844;51.898;-0.874;2024-03-22T00:39:24;2.88;;;2.35;;
46014;SDS011;36844;51.898;-0.874;2024-03-22T00:41:49;2.78;;;1.95;;
46014;SDS011;36844;51.898;-0.874;2024-03-22T00:44:15;2.83;;;1.92;;
46014;SDS011;36844;51.898;-0.874;2024-03-22T00:46:40;3.05;;;2.08;;
46014;SDS011;36844;51.898;-0.874;2024-03-22T00:49:05;1.70;;;1.58;;
46014;SDS011;36844;51.898;-0.874;2024-03-22T00:51:31;2.30;;;1.88;;
46014;SDS011;36844;51.898;-0.874;2024-03-22T00:53:56;2.45;;;2.00;;
46014;SDS011;36844;51.898;-0.874;2024-03-22T00:56:22;3.08;;;1.95;;
46014;SDS011;36844;51.898;-0.874;2024-03-22T00:58:47;3.28;;;1.67;;
46014;SDS011;36844;51.898;-0.874;2024-03-22T01:01:12;2.67;;;2.00;;
46014;SDS011;36844;51.898;-0.874;2024-03-22T01:03:38;3.35;;;1.92;;
46014;SDS011;36844;51.898;-0.874;2024-03-22T01:06:03;4.28;;;2.17;;
46014;SDS011;36844;51.898;-0.874;2024-03-22T01:08:29;3.03;;;2.08;;
46014;SDS011;36844;51.898;-0.874;2024-03-22T01:10:54;3.75;;;2.00;;
46014;SDS011;36844;51.898;-0.874;2024-03-22T01:13:19;3.92;;;2.25;;
46014;SDS011;36844;51.898;-0.874;2024-03-22T01:15:45;2.10;;;1.55;;
46014;SDS011;36844;51.898;-0.874;2024-03-22T01:18:11;3.63;;;2.15;;
46014;SDS011;36844;51.898;-0.874;2024-03-22T01:20:37;2.42;;;1.92;;
46014;SDS011;36844;51.898;-0.874;2024-03-22T01:23:02;4.22;;;2.08;;
46014;SDS011;36844;51.898;-0.874;2024-03-22T01:25:27;2.35;;;2.00;;
46014;SDS011;36844;51.898;-0.874;2024-03-22T01:27:53;3.17;;;1.95;;
46014;SDS011;36844;51.898;-0.874;2024-03-22T01:30:18;2.42;;;1.77;;
46014;SDS011;36844;51.898;-0.874;2024-03-22T01:32:43;2.08;;;1.63;;
46014;SDS011;36844;51.898;-0.874;2024-03-22T01:35:09;2.05;;;1.85;;
46014;SDS011;36844;51.898;-0.874;2024-03-22T01:37:34;3.05;;;2.58;;
46014;SDS011;36844;51.898;-0.874;2024-03-22T01:39:59;2.40;;;1.73;;
46014;SDS011;36844;51.898;-0.874;2024-03-22T01:42:24;2.55;;;1.80;;
46014;SDS011;36844;51.898;-0.874;2024-03-22T01:44:50;2.05;;;1.77;;
46014;SDS011;36844;51.898;-0.874;2024-03-22T01:47:15;2.20;;;2.00;;
46014;SDS011;36844;51.898;-0.874;2024-03-22T01:49:41;2.47;;;1.90;;
46014;SDS011;36844;51.898;-0.874;2024-03-22T01:52:07;2.83;;;1.70;;
46014;SDS011;36844;51.898;-0.874;2024-03-22T01:54:33;2.10;;;1.63;;
46014;SDS011;36844;51.898;-0.874;2024-03-22T01:56:58;1.92;;;1.73;;
46014;SDS011;36844;51.898;-0.874;2024-03-22T01:59:24;2.08;;;1.88;;
46014;SDS011;36844;51.898;-0.874;2024-03-22T02:01:50;2.78;;;2.05;;
46014;SDS011;36844;51.898;-0.874;2024-03-22T02:04:16;2.35;;;1.83;;
46014;SDS011;36844;51.898;-0.874;2024-03-22T02:06:41;3.83;;;2.47;;
46014;SDS011;36844;51.898;-0.874;2024-03-22T02:09:07;1.90;;;1.70;;
46014;SDS011;36844;51.898;-0.874;2024-03-22T02:11:34;4.07;;;1.70;;
46014;SDS011;36844;51.898;-0.874;2024-03-22T02:14:02;2.20;;;1.83;;
46014;SDS011;36844;51.898;-0.874;2024-03-22T02:16:27;2.38;;;1.85;;
46014;SDS011;36844;51.898;-0.874;2024-03-22T02:18:53;2.55;;;1.90;;
46014;SDS011;36844;51.898;-0.874;2024-03-22T02:21:18;2.17;;;1.48;;
46014;SDS011;36844;51.898;-0.874;2024-03-22T02:23:43;2.55;;;1.50;;
46014;SDS011;36844;51.898;-0.874;2024-03-22T02:26:09;2.00;;;1.80;;
46014;SDS011;36844;51.898;-0.874;2024-03-22T02:28:34;2.45;;;2.15;;
46014;SDS011;36844;51.898;-0.874;2024-03-22T02:31:01;1.70;;;1.52;;
46014;SDS011;36844;51.898;-0.874;2024-03-22T02:33:27;2.65;;;2.13;;
46014;SDS011;36844;51.898;-0.874;2024-03-22T02:35:52;2.08;;;1.65;;
46014;SDS011;36844;51.898;-0.874;2024-03-22T02:38:18;2.03;;;1.70;;
46014;SDS011;36844;51.898;-0.874;2024-03-22T02:40:44;1.90;;;1.70;;
46014;SDS011;36844;51.898;-0.874;2024-03-22T02:43:10;2.92;;;1.83;;
46014;SDS011;36844;51.898;-0.874;2024-03-22T02:45:36;2.05;;;1.63;;
46014;SDS011;36844;51.898;-0.874;2024-03-22T02:48:01;2.13;;;1.83;;
46014;SDS011;36844;51.898;-0.874;2024-03-22T02:50:26;2.75;;;1.75;;
46014;SDS011;36844;51.898;-0.874;2024-03-22T02:52:52;2.50;;;1.90;;
46014;SDS011;36844;51.898;-0.874;2024-03-22T02:55:17;2.13;;;1.73;;
46014;SDS011;36844;51.898;-0.874;2024-03-22T02:57:42;1.83;;;1.40;;
46014;SDS011;36844;51.898;-0.874;2024-03-22T03:00:08;1.50;;;1.23;;
46014;SDS011;36844;51.898;-0.874;2024-03-22T03:02:35;2.78;;;1.75;;
46014;SDS011;36844;51.898;-0.874;2024-03-22T03:05:00;2.90;;;1.70;;
46014;SDS011;36844;51.898;-0.874;2024-03-22T03:07:25;4.50;;;2.40;;
46014;SDS011;36844;51.898;-0.874;2024-03-22T03:09:52;3.13;;;1.73;;
46014;SDS011;36844;51.898;-0.874;2024-03-22T03:12:18;2.33;;;1.55;;
46014;SDS011;36844;51.898;-0.874;2024-03-22T03:14:43;2.53;;;1.67;;
46014;SDS011;36844;51.898;-0.874;2024-03-22T03:17:08;1.45;;;1.35;;
46014;SDS011;36844;51.898;-0.874;2024-03-22T03:19:33;1.73;;;1.40;;
46014;SDS011;36844;51.898;-0.874;2024-03-22T03:21:59;2.10;;;1.90;;
46014;SDS011;36844;51.898;-0.874;2024-03-22T03:24:24;4.43;;;1.92;;
46014;SDS011;36844;51.898;-0.874;2024-03-22T03:26:49;3.08;;;2.08;;
46014;SDS011;36844;51.898;-0.874;2024-03-22T03:29:15;1.83;;;1.63;;
46014;SDS011;36844;51.898;-0.874;2024-03-22T03:31:40;1.98;;;1.73;;
46014;SDS011;36844;51.898;-0.874;2024-03-22T03:34:05;1.70;;;1.50;;
46014;SDS011;36844;51.898;-0.874;2024-03-22T03:36:31;1.95;;;1.70;;
46014;SDS011;36844;51.898;-0.874;2024-03-22T03:38:56;2.33;;;1.58;;
46014;SDS011;36844;51.898;-0.874;2024-03-22T03:41:21;2.72;;;1.75;;
46014;SDS011;36844;51.898;-0.874;2024-03-22T03:43:47;1.98;;;1.55;;
46014;SDS011;36844;51.898;-0.874;2024-03-22T03:46:12;2.63;;;1.50;;
46014;SDS011;36844;51.898;-0.874;2024-03-22T03:48:37;2.38;;;1.73;;
46014;SDS011;36844;51.898;-0.874;2024-03-22T03:51:03;2.33;;;1.95;;
46014;SDS011;36844;51.898;-0.874;2024-03-22T03:53:29;1.50;;;1.27;;
46014;SDS011;36844;51.898;-0.874;2024-03-22T03:55:55;2.97;;;1.83;;
46014;SDS011;36844;51.898;-0.874;2024-03-22T03:58:20;1.83;;;1.45;;
46014;SDS011;36844;51.898;-0.874;2024-03-22T04:00:45;2.05;;;1.52;;
46014;SDS011;36844;51.898;-0.874;2024-03-22T04:03:11;1.15;;;1.02;;
46014;SDS011;36844;51.898;-0.874;2024-03-22T04:05:36;1.25;;;1.15;;
46014;SDS011;36844;51.898;-0.874;2024-03-22T04:08:01;1.58;;;1.33;;
46014;SDS011;36844;51.898;-0.874;2024-03-22T04:10:27;1.60;;;1.40;;
46014;SDS011;36844;51.898;-0.874;2024-03-22T04:12:52;1.48;;;1.27;;
46014;SDS011;36844;51.898;-0.874;2024-03-22T04:15:17;1.63;;;1.50;;
46014;SDS011;36844;51.898;-0.874;2024-03-22T04:17:43;3.05;;;1.58;;
46014;SDS011;36844;51.898;-0.874;2024-03-22T04:20:08;1.38;;;1.20;;
46014;SDS011;36844;51.898;-0.874;2024-03-22T04:22:34;1.73;;;1.35;;
46014;SDS011;36844;51.898;-0.874;2024-03-22T04:24:59;2.05;;;1.40;;
46014;SDS011;36844;51.898;-0.874;2024-03-22T04:27:24;2.10;;;1.70;;
46014;SDS011;36844;51.898;-0.874;2024-03-22T04:29:50;2.30;;;1.23;;
46014;SDS011;36844;51.898;-0.874;2024-03-22T04:32:15;1.38;;;1.27;;
46014;SDS011;36844;51.898;-0.874;2024-03-22T04:34:43;1.88;;;1.20;;
46014;SDS011;36844;51.898;-0.874;2024-03-22T04:37:08;2.40;;;1.50;;
46014;SDS011;36844;51.898;-0.874;2024-03-22T04:39:34;1.63;;;1.33;;
46014;SDS011;36844;51.898;-0.874;2024-03-22T04:42:01;1.67;;;1.33;;
46014;SDS011;36844;51.898;-0.874;2024-03-22T04:44:26;1.30;;;1.15;;
46014;SDS011;36844;51.898;-0.874;2024-03-22T04:46:52;3.45;;;1.55;;
46014;SDS011;36844;51.898;-0.874;2024-03-22T04:49:17;2.15;;;1.77;;
46014;SDS011;36844;51.898;-0.874;2024-03-22T04:51:42;1.75;;;1.50;;
46014;SDS011;36844;51.898;-0.874;2024-03-22T04:54:08;1.90;;;1.35;;
46014;SDS011;36844;51.898;-0.874;2024-03-22T04:56:33;2.65;;;1.48;;
46014;SDS011;36844;51.898;-0.874;2024-03-22T04:58:58;1.40;;;1.20;;
46014;SDS011;36844;51.898;-0.874;2024-03-22T05:01:23;1.58;;;1.33;;
46014;SDS011;36844;51.898;-0.874;2024-03-22T05:03:49;1.10;;;0.90;;
46014;SDS011;36844;51.898;-0.874;2024-03-22T05:06:15;1.42;;;1.30;;
46014;SDS011;36844;51.898;-0.874;2024-03-22T05:08:40;1.63;;;1.52;;
46014;SDS011;36844;51.898;-0.874;2024-03-22T05:11:06;1.58;;;0.93;;
46014;SDS011;36844;51.898;-0.874;2024-03-22T05:13:32;1.27;;;1.05;;
46014;SDS011;36844;51.898;-0.874;2024-03-22T05:15:57;2.58;;;1.45;;
46014;SDS011;36844;51.898;-0.874;2024-03-22T05:18:23;1.85;;;1.45;;
46014;SDS011;36844;51.898;-0.874;2024-03-22T05:20:48;1.48;;;1.17;;
46014;SDS011;36844;51.898;-0.874;2024-03-22T05:23:13;2.13;;;1.08;;
46014;SDS011;36844;51.898;-0.874;2024-03-22T05:25:41;2.33;;;1.25;;
46014;SDS011;36844;51.898;-0.874;2024-03-22T05:28:06;2.53;;;1.33;;
46014;SDS011;36844;51.898;-0.874;2024-03-22T05:30:32;2.35;;;1.40;;
46014;SDS011;36844;51.898;-0.874;2024-03-22T05:32:57;1.40;;;1.23;;
46014;SDS011;36844;51.898;-0.874;2024-03-22T05:35:23;2.33;;;1.33;;
46014;SDS011;36844;51.898;-0.874;2024-03-22T05:37:48;2.15;;;1.20;;
46014;SDS011;36844;51.898;-0.874;2024-03-22T05:40:14;1.45;;;1.35;;
46014;SDS011;36844;51.898;-0.874;2024-03-22T05:42:39;0.90;;;0.90;;
46014;SDS011;36844;51.898;-0.874;2024-03-22T05:45:05;1.50;;;1.20;;
46014;SDS011;36844;51.898;-0.874;2024-03-22T05:47:31;1.58;;;1.30;;
46014;SDS011;36844;51.898;-0.874;2024-03-22T05:49:56;1.63;;;1.33;;
46014;SDS011;36844;51.898;-0.874;2024-03-22T05:52:21;1.30;;;1.20;;
46014;SDS011;36844;51.898;-0.874;2024-03-22T05:54:47;1.35;;;1.10;;
46014;SDS011;36844;51.898;-0.874;2024-03-22T05:57:13;1.35;;;1.25;;
46014;SDS011;36844;51.898;-0.874;2024-03-22T05:59:38;1.40;;;1.30;;
46014;SDS011;36844;51.898;-0.874;2024-03-22T06:02:04;1.27;;;1.17;;
46014;SDS011;36844;51.898;-0.874;2024-03-22T06:04:29;1.27;;;1.17;;
46014;SDS011;36844;51.898;-0.874;2024-03-22T06:06:55;1.15;;;1.05;;
46014;SDS011;36844;51.898;-0.874;2024-03-22T06:09:20;1.92;;;1.20;;
46014;SDS011;36844;51.898;-0.874;2024-03-22T06:11:52;1.70;;;1.58;;
46014;SDS011;36844;51.898;-0.874;2024-03-22T06:14:17;2.33;;;1.52;;
46014;SDS011;36844;51.898;-0.874;2024-03-22T06:16:43;2.47;;;1.20;;
46014;SDS011;36844;51.898;-0.874;2024-03-22T06:19:08;1.00;;;0.90;;
46014;SDS011;36844;51.898;-0.874;2024-03-22T06:21:33;1.65;;;1.25;;
46014;SDS011;36844;51.898;-0.874;2024-03-22T06:23:59;2.03;;;1.45;;
46014;SDS011;36844;51.898;-0.874;2024-03-22T06:26:24;2.25;;;1.30;;
46014;SDS011;36844;51.898;-0.874;2024-03-22T06:28:49;1.17;;;1.08;;
46014;SDS011;36844;51.898;-0.874;2024-03-22T06:31:15;1.27;;;1.17;;
46014;SDS011;36844;51.898;-0.874;2024-03-22T06:33:40;1.00;;;0.90;;
46014;SDS011;36844;51.898;-0.874;2024-03-22T06:36:05;1.63;;;1.10;;
46014;SDS011;36844;51.898;-0.874;2024-03-22T06:38:31;1.88;;;1.17;;
46014;SDS011;36844;51.898;-0.874;2024-03-22T06:40:56;1.40;;;1.20;;
46014;SDS011;36844;51.898;-0.874;2024-03-22T06:43:22;4.10;;;1.00;;
46014;SDS011;36844;51.898;-0.874;2024-03-22T06:45:47;2.20;;;1.35;;
46014;SDS011;36844;51.898;-0.874;2024-03-22T06:48:13;0.90;;;0.90;;
46014;SDS011;36844;51.898;-0.874;2024-03-22T06:50:39;1.48;;;0.88;;
46014;SDS011;36844;51.898;-0.874;2024-03-22T06:53:05;1.65;;;1.27;;
46014;SDS011;36844;51.898;-0.874;2024-03-22T06:55:30;1.17;;;1.08;;
46014;SDS011;36844;51.898;-0.874;2024-03-22T06:57:55;1.30;;;1.20;;
46014;SDS011;36844;51.898;-0.874;2024-03-22T07:00:21;1.20;;;1.10;;
46014;SDS011;36844;51.898;-0.874;2024-03-22T07:02:46;1.02;;;0.93;;
46014;SDS011;36844;51.898;-0.874;2024-03-22T07:05:11;1.10;;;1.00;;
46014;SDS011;36844;51.898;-0.874;2024-03-22T07:07:37;1.27;;;1.17;;
46014;SDS011;36844;51.898;-0.874;2024-03-22T07:10:03;1.00;;;0.90;;
46014;SDS011;36844;51.898;-0.874;2024-03-22T07:12:30;0.80;;;0.80;;
46014;SDS011;36844;51.898;-0.874;2024-03-22T07:14:57;0.90;;;0.90;;
46014;SDS011;36844;51.898;-0.874;2024-03-22T07:17:22;28.02;;;1.55;;
46014;SDS011;36844;51.898;-0.874;2024-03-22T07:19:52;0.90;;;0.60;;
46014;SDS011;36844;51.898;-0.874;2024-03-22T07:22:18;1.02;;;1.00;;
46014;SDS011;36844;51.898;-0.874;2024-03-22T07:24:45;0.95;;;0.90;;
46014;SDS011;36844;51.898;-0.874;2024-03-22T07:27:10;1.25;;;0.77;;
46014;SDS011;36844;51.898;-0.874;2024-03-22T07:29:36;0.70;;;0.70;;
46014;SDS011;36844;51.898;-0.874;2024-03-22T07:32:01;8.30;;;1.05;;
46014;SDS011;36844;51.898;-0.874;2024-03-22T07:34:27;0.52;;;0.52;;
46014;SDS011;36844;51.898;-0.874;2024-03-22T07:36:52;1.48;;;0.90;;
46014;SDS011;36844;51.898;-0.874;2024-03-22T07:39:18;1.00;;;0.73;;
46014;SDS011;36844;51.898;-0.874;2024-03-22T07:41:43;1.70;;;0.75;;
46014;SDS011;36844;51.898;-0.874;2024-03-22T07:44:08;3.03;;;0.77;;
46014;SDS011;36844;51.898;-0.874;2024-03-22T07:46:34;0.90;;;0.70;;
46014;SDS011;36844;51.898;-0.874;2024-03-22T07:48:59;1.08;;;0.65;;
46014;SDS011;36844;51.898;-0.874;2024-03-22T07:51:25;1.23;;;0.60;;
46014;SDS011;36844;51.898;-0.874;2024-03-22T07:53:50;0.88;;;0.60;;
46014;SDS011;36844;51.898;-0.874;2024-03-22T07:56:17;0.98;;;0.80;;
46014;SDS011;36844;51.898;-0.874;2024-03-22T07:58:42;0.90;;;0.70;;
46014;SDS011;36844;51.898;-0.874;2024-03-22T08:01:08;0.77;;;0.50;;
46014;SDS011;36844;51.898;-0.874;2024-03-22T08:03:33;2.13;;;0.60;;
46014;SDS011;36844;51.898;-0.874;2024-03-22T08:05:58;0.63;;;0.63;;
46014;SDS011;36844;51.898;-0.874;2024-03-22T08:08:24;1.85;;;0.90;;
46014;SDS011;36844;51.898;-0.874;2024-03-22T08:10:49;1.40;;;0.60;;
46014;SDS011;36844;51.898;-0.874;2024-03-22T08:13:14;2.47;;;0.88;;
46014;SDS011;36844;51.898;-0.874;2024-03-22T08:15:40;0.60;;;0.57;;
46014;SDS011;36844;51.898;-0.874;2024-03-22T08:18:06;2.28;;;0.63;;
46014;SDS011;36844;51.898;-0.874;2024-03-22T08:20:31;2.35;;;0.90;;
46014;SDS011;36844;51.898;-0.874;2024-03-22T08:22:58;0.50;;;0.43;;
46014;SDS011;36844;51.898;-0.874;2024-03-22T08:25:24;1.63;;;0.60;;
46014;SDS011;36844;51.898;-0.874;2024-03-22T08:27:50;1.50;;;0.60;;
46014;SDS011;36844;51.898;-0.874;2024-03-22T08:30:15;0.73;;;0.70;;
46014;SDS011;36844;51.898;-0.874;2024-03-22T08:32:40;1.92;;;0.70;;
46014;SDS011;36844;51.898;-0.874;2024-03-22T08:35:06;1.08;;;0.93;;
46014;SDS011;36844;51.898;-0.874;2024-03-22T08:37:32;1.95;;;0.60;;
46014;SDS011;36844;51.898;-0.874;2024-03-22T08:39:58;1.13;;;0.55;;
46014;SDS011;36844;51.898;-0.874;2024-03-22T08:42:24;1.45;;;0.75;;
46014;SDS011;36844;51.898;-0.874;2024-03-22T08:44:49;3.22;;;0.47;;
46014;SDS011;36844;51.898;-0.874;2024-03-22T08:47:14;2.03;;;0.65;;
46014;SDS011;36844;51.898;-0.874;2024-03-22T08:49:40;0.85;;;0.55;;
46014;SDS011;36844;51.898;-0.874;2024-03-22T08:52:06;2.35;;;0.85;;
46014;SDS011;36844;51.898;-0.874;2024-03-22T08:54:32;2.30;;;0.70;;
46014;SDS011;36844;51.898;-0.874;2024-03-22T08:56:57;0.73;;;0.45;;
46014;SDS011;36844;51.898;-0.874;2024-03-22T08:59:22;0.93;;;0.70;;
46014;SDS011;36844;51.898;-0.874;2024-03-22T09:01:49;2.95;;;1.05;;
46014;SDS011;36844;51.898;-0.874;2024-03-22T09:04:14;2.88;;;0.90;;
46014;SDS011;36844;51.898;-0.874;2024-03-22T09:06:40;2.85;;;1.35;;
46014;SDS011;36844;51.898;-0.874;2024-03-22T09:09:05;1.95;;;0.60;;
46014;SDS011;36844;51.898;-0.874;2024-03-22T09:11:31;3.22;;;0.88;;
46014;SDS011;36844;51.898;-0.874;2024-03-22T09:13:56;4.07;;;1.73;;
46014;SDS011;36844;51.898;-0.874;2024-03-22T09:16:23;4.43;;;1.20;;
46014;SDS011;36844;51.898;-0.874;2024-03-22T09:18:48;4.35;;;1.20;;
46014;SDS011;36844;51.898;-0.874;2024-03-22T09:21:14;2.97;;;1.00;;
46014;SDS011;36844;51.898;-0.874;2024-03-22T09:23:39;5.35;;;1.20;;
46014;SDS011;36844;51.898;-0.874;2024-03-22T09:26:05;28.02;;;6.70;;
46014;SDS011;36844;51.898;-0.874;2024-03-22T09:28:30;86.85;;;18.58;;
46014;SDS011;36844;51.898;-0.874;2024-03-22T09:30:56;39.25;;;11.65;;
46014;SDS011;36844;51.898;-0.874;2024-03-22T09:33:21;30.60;;;8.50;;
46014;SDS011;36844;51.898;-0.874;2024-03-22T09:35:47;26.15;;;7.53;;
46014;SDS011;36844;51.898;-0.874;2024-03-22T09:38:12;24.35;;;6.20;;
46014;SDS011;36844;51.898;-0.874;2024-03-22T09:40:38;25.65;;;7.00;;
46014;SDS011;36844;51.898;-0.874;2024-03-22T09:43:04;22.70;;;6.15;;
46014;SDS011;36844;51.898;-0.874;2024-03-22T09:45:33;21.80;;;6.75;;
46014;SDS011;36844;51.898;-0.874;2024-03-22T09:47:58;28.05;;;8.57;;
46014;SDS011;36844;51.898;-0.874;2024-03-22T09:50:24;20.70;;;5.82;;
46014;SDS011;36844;51.898;-0.874;2024-03-22T09:52:51;25.75;;;6.78;;
46014;SDS011;36844;51.898;-0.874;2024-03-22T09:55:19;23.90;;;6.10;;
46014;SDS011;36844;51.898;-0.874;2024-03-22T09:57:47;18.73;;;6.68;;
46014;SDS011;36844;51.898;-0.874;2024-03-22T10:00:15;29.85;;;6.18;;
46014;SDS011;36844;51.898;-0.874;2024-03-22T10:02:43;19.45;;;6.35;;
46014;SDS011;36844;51.898;-0.874;2024-03-22T10:05:11;15.68;;;5.07;;
46014;SDS011;36844;51.898;-0.874;2024-03-22T10:07:36;15.27;;;5.25;;
46014;SDS011;36844;51.898;-0.874;2024-03-22T10:10:02;19.27;;;5.47;;
46014;SDS011;36844;51.898;-0.874;2024-03-22T10:12:28;24.90;;;6.93;;
46014;SDS011;36844;51.898;-0.874;2024-03-22T10:14:54;21.58;;;7.07;;
46014;SDS011;36844;51.898;-0.874;2024-03-22T10:17:19;16.23;;;5.45;;
46014;SDS011;36844;51.898;-0.874;2024-03-22T10:19:45;20.13;;;6.00;;
46014;SDS011;36844;51.898;-0.874;2024-03-22T10:22:10;17.02;;;5.25;;
46014;SDS011;36844;51.898;-0.874;2024-03-22T10:24:37;13.27;;;5.35;;
46014;SDS011;36844;51.898;-0.874;2024-03-22T10:27:02;22.40;;;6.78;;
46014;SDS011;36844;51.898;-0.874;2024-03-22T10:29:28;37.90;;;6.80;;
46014;SDS011;36844;51.898;-0.874;2024-03-22T10:31:54;14.70;;;4.82;;
46014;SDS011;36844;51.898;-0.874;2024-03-22T10:34:20;14.15;;;5.47;;
46014;SDS011;36844;51.898;-0.874;2024-03-22T10:36:46;16.38;;;4.57;;
46014;SDS011;36844;51.898;-0.874;2024-03-22T10:39:13;16.13;;;5.03;;
46014;SDS011;36844;51.898;-0.874;2024-03-22T10:41:42;18.58;;;4.72;;
46014;SDS011;36844;51.898;-0.874;2024-03-22T10:44:08;15.75;;;5.07;;
46014;SDS011;36844;51.898;-0.874;2024-03-22T10:46:33;17.48;;;4.20;;
46014;SDS011;36844;51.898;-0.874;2024-03-22T10:49:00;12.32;;;4.28;;
46014;SDS011;36844;51.898;-0.874;2024-03-22T10:51:29;10.10;;;4.30;;
46014;SDS011;36844;51.898;-0.874;2024-03-22T10:53:55;12.82;;;5.00;;
46014;SDS011;36844;51.898;-0.874;2024-03-22T10:56:21;14.05;;;4.95;;
46014;SDS011;36844;51.898;-0.874;2024-03-22T10:58:48;12.98;;;4.10;;
46014;SDS011;36844;51.898;-0.874;2024-03-22T11:01:21;13.40;;;4.10;;
46014;SDS011;36844;51.898;-0.874;2024-03-22T11:03:48;17.83;;;5.32;;
46014;SDS011;36844;51.898;-0.874;2024-03-22T11:06:13;11.38;;;3.88;;
46014;SDS011;36844;51.898;-0.874;2024-03-22T11:08:42;11.25;;;4.00;;
46014;SDS011;36844;51.898;-0.874;2024-03-22T11:11:11;15.38;;;4.10;;
46014;SDS011;36844;51.898;-0.874;2024-03-22T11:13:36;16.23;;;4.82;;
46014;SDS011;36844;51.898;-0.874;2024-03-22T11:16:04;12.63;;;4.35;;
46014;SDS011;36844;51.898;-0.874;2024-03-22T11:18:30;13.70;;;4.07;;
46014;SDS011;36844;51.898;-0.874;2024-03-22T11:20:55;16.02;;;4.15;;
46014;SDS011;36844;51.898;-0.874;2024-03-22T11:23:20;13.88;;;3.80;;
46014;SDS011;36844;51.898;-0.874;2024-03-22T11:25:46;20.67;;;4.47;;
46014;SDS011;36844;51.898;-0.874;2024-03-22T11:28:11;13.75;;;3.50;;
46014;SDS011;36844;51.898;-0.874;2024-03-22T11:30:37;11.88;;;3.90;;
46014;SDS011;36844;51.898;-0.874;2024-03-22T11:33:03;17.88;;;3.78;;
46014;SDS011;36844;51.898;-0.874;2024-03-22T11:35:30;13.20;;;4.85;;
46014;SDS011;36844;51.898;-0.874;2024-03-22T11:37:56;9.68;;;3.28;;
46014;SDS011;36844;51.898;-0.874;2024-03-22T11:40:23;12.90;;;3.00;;
46014;SDS011;36844;51.898;-0.874;2024-03-22T11:42:51;9.38;;;3.22;;
46014;SDS011;36844;51.898;-0.874;2024-03-22T11:45:17;17.45;;;3.55;;
46014;SDS011;36844;51.898;-0.874;2024-03-22T11:47:44;18.88;;;4.97;;
46014;SDS011;36844;51.898;-0.874;2024-03-22T11:50:11;13.93;;;2.92;;
46014;SDS011;36844;51.898;-0.874;2024-03-22T11:52:39;14.55;;;3.30;;
46014;SDS011;36844;51.898;-0.874;2024-03-22T11:55:06;18.13;;;3.65;;
46014;SDS011;36844;51.898;-0.874;2024-03-22T11:57:31;15.82;;;3.28;;
46014;SDS011;36844;51.898;-0.874;2024-03-22T12:00:00;15.90;;;3.33;;
46014;SDS011;36844;51.898;-0.874;2024-03-22T12:02:26;10.52;;;3.33;;
46014;SDS011;36844;51.898;-0.874;2024-03-22T12:04:52;7.03;;;2.28;;
46014;SDS011;36844;51.898;-0.874;2024-03-22T12:07:17;13.55;;;2.35;;
46014;SDS011;36844;51.898;-0.874;2024-03-22T12:09:43;14.07;;;3.35;;
46014;SDS011;36844;51.898;-0.874;2024-03-22T12:12:09;15.77;;;3.30;;
46014;SDS011;36844;51.898;-0.874;2024-03-22T12:14:36;10.55;;;2.58;;
46014;SDS011;36844;51.898;-0.874;2024-03-22T12:17:02;12.93;;;4.05;;
46014;SDS011;36844;51.898;-0.874;2024-03-22T12:19:28;9.50;;;3.42;;
46014;SDS011;36844;51.898;-0.874;2024-03-22T12:21:53;10.30;;;2.80;;
46014;SDS011;36844;51.898;-0.874;2024-03-22T12:24:19;12.50;;;2.47;;
46014;SDS011;36844;51.898;-0.874;2024-03-22T12:26:44;24.95;;;3.28;;
46014;SDS011;36844;51.898;-0.874;2024-03-22T12:29:10;16.90;;;3.40;;
46014;SDS011;36844;51.898;-0.874;2024-03-22T12:31:37;9.68;;;2.25;;
46014;SDS011;36844;51.898;-0.874;2024-03-22T12:34:03;8.38;;;2.42;;
46014;SDS011;36844;51.898;-0.874;2024-03-22T12:36:28;6.80;;;2.38;;
46014;SDS011;36844;51.898;-0.874;2024-03-22T12:38:53;6.43;;;2.30;;
46014;SDS011;36844;51.898;-0.874;2024-03-22T12:41:19;7.82;;;2.22;;
46014;SDS011;36844;51.898;-0.874;2024-03-22T12:43:44;9.10;;;2.35;;
46014;SDS011;36844;51.898;-0.874;2024-03-22T12:46:09;9.05;;;2.92;;
46014;SDS011;36844;51.898;-0.874;2024-03-22T12:48:34;6.13;;;1.75;;
46014;SDS011;36844;51.898;-0.874;2024-03-22T12:51:00;3.92;;;2.15;;
46014;SDS011;36844;51.898;-0.874;2024-03-22T12:53:25;5.93;;;1.92;;
46014;SDS011;36844;51.898;-0.874;2024-03-22T12:55:50;8.00;;;1.75;;
46014;SDS011;36844;51.898;-0.874;2024-03-22T12:58:16;7.32;;;2.15;;
46014;SDS011;36844;51.898;-0.874;2024-03-22T13:00:41;5.00;;;1.90;;
46014;SDS011;36844;51.898;-0.874;2024-03-22T13:03:06;6.75;;;2.60;;
46014;SDS011;36844;51.898;-0.874;2024-03-22T13:05:32;7.13;;;2.42;;
46014;SDS011;36844;51.898;-0.874;2024-03-22T13:07:57;7.13;;;2.20;;
46014;SDS011;36844;51.898;-0.874;2024-03-22T13:10:22;7.65;;;2.42;;
46014;SDS011;36844;51.898;-0.874;2024-03-22T13:12:47;6.45;;;2.00;;
46014;SDS011;36844;51.898;-0.874;2024-03-22T13:15:13;6.75;;;1.90;;
46014;SDS011;36844;51.898;-0.874;2024-03-22T13:17:38;5.90;;;1.80;;
46014;SDS011;36844;51.898;-0.874;2024-03-22T13:20:04;7.25;;;2.33;;
46014;SDS011;36844;51.898;-0.874;2024-03-22T13:22:35;6.55;;;2.25;;
46014;SDS011;36844;51.898;-0.874;2024-03-22T13:25:03;7.00;;;2.22;;
46014;SDS011;36844;51.898;-0.874;2024-03-22T13:27:32;8.75;;;2.53;;
46014;SDS011;36844;51.898;-0.874;2024-03-22T13:30:03;4.65;;;1.45;;
46014;SDS011;36844;51.898;-0.874;2024-03-22T13:32:29;5.43;;;1.83;;
46014;SDS011;36844;51.898;-0.874;2024-03-22T13:34:55;8.90;;;1.73;;
46014;SDS011;36844;51.898;-0.874;2024-03-22T13:37:20;9.63;;;2.38;;
46014;SDS011;36844;51.898;-0.874;2024-03-22T13:39:49;5.75;;;1.60;;
46014;SDS011;36844;51.898;-0.874;2024-03-22T13:42:14;5.50;;;1.70;;
46014;SDS011;36844;51.898;-0.874;2024-03-22T13:44:41;5.95;;;1.90;;
46014;SDS011;36844;51.898;-0.874;2024-03-22T13:47:06;6.10;;;1.85;;
46014;SDS011;36844;51.898;-0.874;2024-03-22T13:49:32;6.10;;;1.92;;
46014;SDS011;36844;51.898;-0.874;2024-03-22T13:51:58;5.25;;;2.22;;
46014;SDS011;36844;51.898;-0.874;2024-03-22T13:54:24;5.05;;;1.58;;
46014;SDS011;36844;51.898;-0.874;2024-03-22T13:56:49;6.32;;;1.88;;
46014;SDS011;36844;51.898;-0.874;2024-03-22T13:59:15;8.40;;;2.55;;
46014;SDS011;36844;51.898;-0.874;2024-03-22T14:01:41;5.55;;;1.88;;
46014;SDS011;36844;51.898;-0.874;2024-03-22T14:04:10;5.78;;;2.08;;
46014;SDS011;36844;51.898;-0.874;2024-03-22T14:06:36;6.88;;;1.60;;
46014;SDS011;36844;51.898;-0.874;2024-03-22T14:09:02;10.88;;;2.55;;
46014;SDS011;36844;51.898;-0.874;2024-03-22T14:11:28;5.97;;;1.55;;
46014;SDS011;36844;51.898;-0.874;2024-03-22T14:13:55;7.15;;;1.45;;
46014;SDS011;36844;51.898;-0.874;2024-03-22T14:16:21;5.85;;;1.42;;
46014;SDS011;36844;51.898;-0.874;2024-03-22T14:18:46;5.60;;;1.58;;
46014;SDS011;36844;51.898;-0.874;2024-03-22T14:21:13;7.25;;;1.80;;